KGGW

Details ICAO KGGW (GGW)
Name Wokal Fld Glasgow Intl
Region United States
Timezone America/Denver (UTC-6.0)
Plans Departing 7
Arriving 10
Stats Elevation 2,294 ft / 699 m (AMSL)
Location 48.212244° -106.602046°
Runways 2
Magnetic Variation 9.855° E
Sunrise 2018-05-23 11:19:05 UTC / 2018-05-23 05:19:05 Local
Sunset 2018-05-24 02:50:08 UTC / 2018-05-23 20:50:08 Local
Advertisement - Login to hide

Runways

ID Width Length Bearing (true) Bearing (mag) Surface Threshold Offset Overrun Length
08 75 ft / 23 m 4,986 ft / 1,520 m 89.98° 80.12° Asphalt 0 ft / 0 m 1,345 ft / 410 m
12 100 ft / 30 m 4,995 ft / 1,522 m 134.08° 124.22° Asphalt 0 ft / 0 m 900 ft / 274 m
26 75 ft / 23 m 4,986 ft / 1,520 m 270.00° 260.14° Asphalt 0 ft / 0 m 0 ft / 0 m
30 100 ft / 30 m 4,995 ft / 1,522 m 314.09° 304.23° Asphalt 0 ft / 0 m 0 ft / 0 m

Map

Weather


0- 5 10 15 20 25 30 35+ Temperature / ° C

Clouds and Precipitation
Forecast for 2018-05-23 12:00 UTC. Updated 5 hours ago

Ground ~20,000 ft ~40,000 ft Winds

METAR

KGGW 231453Z AUTO 12008KT 10SM CLR 19/12 A2988 RMK AO2 SLP111 T01940122 58003

TAF

KGGW 231139Z 2312/2412 07006KT P6SM SCT090 FM232100 10012KT P6SM -SHRA BKN070 FM240200 09008KT P6SM -SHRA BKN040 FM240500 00000KT P6SM BKN030

Frequencies

Recorded 135.17 MHz ASOS
Unicom 122.80 MHz CTAF/UNICOM
Unicom 122.80 MHz CTAF/UNICOM
Warning: Do not use this data for real-world aviation or navigation. No guarantee of current accuracy is given.